메인 페이지
METAR-TAF:

METAR-TAF

공항 :

Terrell Municipal Airport

테럴, 텍사스, 미국

위도: 32-42-49N, 경도: 096-16-06W, 고도: 144m

현재 날씨관측

예보는 24분 전, 18:53시(UTC)에 발표되었습니다.
남동6kt
온도 17°C
습도 82%
기압 1004 hPa
시정: 14.5km
고도 1100ft 상공 흐림
약한비

METAR: KTRL 131853Z AUTO 14006KT 9SM -RA OVC011 17/14 A2966 RMK AO2 RAB04 SLP040 P0000 T01670144

시각: 13:17 (19:17 UTC)


TAF: 누락

4,000개 이상의 공항 관측 자료 및 예보 (METAR 및 TAF 보고).

지도상에서 검색 가능한 기상관측소가 노란 점과 빨간 점으로 표시되어 있습니다.

기상관측소 명을 보려면 표시 위로 마우스를 이동하세요.

날씨 관측과 예보를 보려면 클릭하세요.

지도 변경 : 확대하려면 엑스 표시가 있는 녹색 버튼, 축소하려면 빼기 표시가 있는 녹색 버튼, 다음 페이지의 지도를 보려면 녹색 화살표를 클릭하세요.


METAR-TAF: